地図

経路データ

SID SEASON NUMBER BASIN SUBBASIN NAME ISO_TIME NATURE LAT LON WMO_WIND WMO_PRES WMO_AGENCY TRACK_TYPE DIST2LAND LANDFALL IFLAG USA_AGENCY USA_ATCF_ID USA_LAT USA_LON USA_RECORD USA_STATUS USA_WIND USA_PRES USA_SSHS USA_R34_NE USA_R34_SE USA_R34_SW USA_R34_NW USA_R50_NE USA_R50_SE USA_R50_SW USA_R50_NW USA_R64_NE USA_R64_SE USA_R64_SW USA_R64_NW USA_POCI USA_ROCI USA_RMW USA_EYE TOKYO_LAT TOKYO_LON TOKYO_GRADE TOKYO_WIND TOKYO_PRES TOKYO_R50_DIR TOKYO_R50_LONG TOKYO_R50_SHORT TOKYO_R30_DIR TOKYO_R30_LONG TOKYO_R30_SHORT TOKYO_LAND CMA_LAT CMA_LON CMA_CAT CMA_WIND CMA_PRES HKO_LAT HKO_LON HKO_CAT HKO_WIND HKO_PRES NEWDELHI_LAT NEWDELHI_LON NEWDELHI_GRADE NEWDELHI_WIND NEWDELHI_PRES NEWDELHI_CI NEWDELHI_DP NEWDELHI_POCI REUNION_LAT REUNION_LON REUNION_TYPE REUNION_WIND REUNION_PRES REUNION_TNUM REUNION_CI REUNION_RMW REUNION_R34_NE REUNION_R34_SE REUNION_R34_SW REUNION_R34_NW REUNION_R50_NE REUNION_R50_SE REUNION_R50_SW REUNION_R50_NW REUNION_R64_NE REUNION_R64_SE REUNION_R64_SW REUNION_R64_NW BOM_LAT BOM_LON BOM_TYPE BOM_WIND BOM_PRES BOM_TNUM BOM_CI BOM_RMW BOM_R34_NE BOM_R34_SE BOM_R34_SW BOM_R34_NW BOM_R50_NE BOM_R50_SE BOM_R50_SW BOM_R50_NW BOM_R64_NE BOM_R64_SE BOM_R64_SW BOM_R64_NW BOM_ROCI BOM_POCI BOM_EYE BOM_POS_METHOD BOM_PRES_METHOD NADI_LAT NADI_LON NADI_CAT NADI_WIND NADI_PRES WELLINGTON_LAT WELLINGTON_LON WELLINGTON_WIND WELLINGTON_PRES DS824_LAT DS824_LON DS824_STAGE DS824_WIND DS824_PRES TD9636_LAT TD9636_LON TD9636_STAGE TD9636_WIND TD9636_PRES TD9635_LAT TD9635_LON TD9635_WIND TD9635_PRES TD9635_ROCI NEUMANN_LAT NEUMANN_LON NEUMANN_CLASS NEUMANN_WIND NEUMANN_PRES MLC_LAT MLC_LON MLC_CLASS MLC_WIND MLC_PRES USA_GUST BOM_GUST BOM_GUST_PER REUNION_GUST REUNION_GUST_PER USA_SEAHGT USA_SEARAD_NE USA_SEARAD_SE USA_SEARAD_SW USA_SEARAD_NW STORM_SPEED STORM_DIR
1954149N31280 1954 19 NA NA NOT_NAMED 1954-05-28 12:00:00 TS 30.7000 -80.0000 30 hurdat_atl main 133 133 O_____________ hurdat_atl AL011954 30.7000 -80.0000 TD 30 -1 8 44
1954149N31280 1954 19 NA NA NOT_NAMED 1954-05-28 15:00:00 TS 30.9724 -79.6924 main 151 151 P_____________ AL011954 30.9724 -79.6924 TD 32 -1 8 45
1954149N31280 1954 19 NA NA NOT_NAMED 1954-05-28 18:00:00 TS 31.3000 -79.3000 35 1005 hurdat_atl main 159 145 O_____________ hurdat_atl AL011954 31.3000 -79.3000 TS 35 1005 0 11 46
1954149N31280 1954 19 NA NA NOT_NAMED 1954-05-28 21:00:00 TS 31.7202 -78.7727 main 150 137 P_____________ AL011954 31.7202 -78.7727 TS 37 0 13 46
1954149N31280 1954 19 NA NA NOT_NAMED 1954-05-29 00:00:00 TS 32.2000 -78.2000 40 hurdat_atl main 143 143 O_____________ hurdat_atl AL011954 32.2000 -78.2000 TS 40 0 13 44
1954149N31280 1954 19 NA NA NOT_NAMED 1954-05-29 03:00:00 TS 32.6695 -77.7062 main 136 107 P_____________ AL011954 32.6695 -77.7062 TS 40 0 13 40
1954149N31280 1954 19 NA NA NOT_NAMED 1954-05-29 06:00:00 TS 33.2000 -77.2000 40 hurdat_atl main 107 95 O_____________ hurdat_atl AL011954 33.2000 -77.2000 TS 40 0 15 35
1954149N31280 1954 19 NA NA NOT_NAMED 1954-05-29 09:00:00 TS 33.8863 -76.6753 main 89 43 P_____________ AL011954 33.8863 -76.6753 TS 40 0 16 37
1954149N31280 1954 19 NA NA NOT_NAMED 1954-05-29 12:00:00 TS 34.5000 -76.0000 40 hurdat_atl main 50 49 O_____________ hurdat_atl AL011954 34.5000 -76.0000 TS 40 0 16 56
1954149N31280 1954 19 NA NA NOT_NAMED 1954-05-29 15:00:00 TS 34.7886 -75.0279 main 109 109 P_____________ AL011954 34.7886 -75.0279 TS 40 0 17 73
1954149N31280 1954 19 NA NA NOT_NAMED 1954-05-29 18:00:00 TS 35.0000 -74.0000 40 hurdat_atl main 162 162 O_____________ hurdat_atl AL011954 35.0000 -74.0000 TS 40 0 16 73
1954149N31280 1954 19 NA NA NOT_NAMED 1954-05-29 21:00:00 TS 35.2645 -73.1300 main 223 223 P_____________ AL011954 35.2645 -73.1300 TS 42 0 15 59
1954149N31280 1954 19 NA NA NOT_NAMED 1954-05-30 00:00:00 TS 35.8000 -72.4000 45 hurdat_atl main 278 278 O_____________ hurdat_atl AL011954 35.8000 -72.4000 TS 45 0 19 32
1954149N31280 1954 19 NA NA NOT_NAMED 1954-05-30 03:00:00 TS 36.9034 -71.8644 main 321 301 P_____________ AL011954 36.9034 -71.8644 TS 45 0 25 21
1954149N31280 1954 19 NA NA NOT_NAMED 1954-05-30 06:00:00 TS 38.1000 -71.3000 45 hurdat_atl main 302 275 O_____________ hurdat_atl AL011954 38.1000 -71.3000 TS 45 0 22 28
1954149N31280 1954 19 NA NA NOT_NAMED 1954-05-30 09:00:00 TS 38.8719 -70.5600 main 271 241 P_____________ AL011954 38.8719 -70.5600 TS 42 0 20 45
1954149N31280 1954 19 NA NA NOT_NAMED 1954-05-30 12:00:00 ET 39.5000 -69.5000 40 hurdat_atl main 244 230 O_____________ hurdat_atl AL011954 39.5000 -69.5000 EX 40 -4 22 59
1954149N31280 1954 19 NA NA NOT_NAMED 1954-05-30 15:00:00 ET 40.0322 -68.0933 main 247 244 P_____________ AL011954 40.0322 -68.0933 EX 40 -4 28 63
1954149N31280 1954 19 NA NA NOT_NAMED 1954-05-30 18:00:00 ET 40.8000 -66.2000 40 hurdat_atl main 303 189 O_____________ hurdat_atl AL011954 40.8000 -66.2000 EX 40 -4 40 57
1954149N31280 1954 19 NA NA NOT_NAMED 1954-05-30 21:00:00 ET 42.2369 -63.6285 main 199 165 P_____________ AL011954 42.2369 -63.6285 EX 37 -4 49 54
1954149N31280 1954 19 NA NA NOT_NAMED 1954-05-31 00:00:00 ET 43.7000 -60.9000 35 hurdat_atl main 164 145 O_____________ hurdat_atl AL011954 43.7000 -60.9000 EX 35 -4 42 56
1954149N31280 1954 19 NA NA NOT_NAMED 1954-05-31 03:00:00 ET 44.5743 -58.8813 main 161 161 P_____________ AL011954 44.5743 -58.8813 EX 35 -4 33 61
1954149N31280 1954 19 NA NA NOT_NAMED 1954-05-31 06:00:00 ET 45.3000 -56.9000 35 hurdat_atl main 190 68 O_____________ hurdat_atl AL011954 45.3000 -56.9000 EX 35 -4 36 64
1954149N31280 1954 19 NA NA NOT_NAMED 1954-05-31 09:00:00 ET 46.1999 -54.2449 main 63 11 P_____________ AL011954 46.1999 -54.2449 EX 35 -4 41 66
1954149N31280 1954 19 NA NA NOT_NAMED 1954-05-31 12:00:00 ET 47.0000 -51.5000 35 hurdat_atl main 99 99 O_____________ hurdat_atl AL011954 47.0000 -51.5000 EX 35 -4 37 69
1954149N31280 1954 19 NA NA NOT_NAMED 1954-05-31 15:00:00 ET 47.5733 -49.1233 main 261 261 P_____________ AL011954 47.5733 -49.1233 EX 35 -4 32 72
1954149N31280 1954 19 NA NA NOT_NAMED 1954-05-31 18:00:00 ET 48.0000 -47.0000 35 hurdat_atl main 420 O_____________ hurdat_atl AL011954 48.0000 -47.0000 EX 35 -4 30 73

IBTrACS Databaseについて

本データベースは、米国NOAAが公開する1842年以降の世界の熱帯低気圧のベストトラックデータアーカイブInternational Best Track Archive for Climate Stewardship (IBTrACS)を、ウェブで閲覧しやすい形式に変換したものです。

最終更新日:2021-10-08